Calafat, Romania
Current Conditions -  °F | °C
As of 10:00 PM on Sunday 21 Dec 2014 (Local Time) from LRCV Reporting Station
Clear Clear  
Wind Chill: 28°   Ceiling: Unl
Heat Index: 36°   Visibility: 6mi
Dew Point: 28°   Wind: 12mph
Humidity: 75%   Direction: 250°WSW
Pressure: 30.3"   Gusts: NA
Location:  44°N, 22.95°E
Report Text: LRCV 211900Z 25010KT CAVOK 02/M02 Q1026
Loading
Personal Weather Stations






























Interactive Weather Map New forecast layout! Learn more

10-Day Weather Forecast

Advertisements
Track Severe Weather on mobile